Terminal Aerodrome Forecast
Issued by NWS Knoxville/Tri Cities, TN

Home | Current Version | Previous Version | Text Only | Print | Product List | Glossary On
Versions: 1 2 3 4 5 6 7 8 9 10 11 12 13 14 15
000
FTUS44 KMRX 101414 AAB
TAFTRI
TAF AMD
KTRI 101414Z 1014/1112 00000KT 3SM BR SCT003
      TEMPO 1014/1015 1/4SM FZFG BKN003
     FM101600 VRB03KT P6SM SKC=

USA.gov is the U.S. government's official web portal to all federal, state and local government web resources and services.